METAR Data
IDs: Format: Raw Decoded Include TAF

Data at: 0959 UTC 07 Dec 2022

KWVI 070953Z AUTO 34003KT 10SM CLR 04/04 A3014 RMK AO2 SLP206 T00440039

KSNS 070953Z 10004KT 10SM CLR 06/05 A3014 RMK AO2 SLP214 T00560050

KMRY 070954Z 13004KT 10SM CLR 05/04 A3013 RMK AO2 SLP216 T00500039

KSJC 070953Z AUTO 13003KT 10SM CLR 05/03 A3014 RMK AO2 SLP205 T00500033

KSFO 070856Z 00000KT 10SM CLR 07/06 A3013 RMK AO2 SLP202 T00720056 50004

KHAF 070955Z AUTO VRB03KT 10SM FEW045 05/05 A3014 RMK AO2